createdAt,value
2023-11-23T00:01:26.100Z,100.00
2023-11-23T00:06:29.661Z,100.00
2023-11-23T00:11:32.997Z,100.00
2023-11-23T00:16:37.980Z,100.00
2023-11-23T00:21:41.208Z,100.00
2023-11-23T00:26:45.186Z,100.00
2023-11-23T00:31:49.939Z,100.00
2023-11-23T00:36:53.456Z,100.00
2023-11-23T00:41:56.739Z,100.00
2023-11-23T00:47:01.731Z,100.00
2023-11-23T00:52:05.667Z,100.00
2023-11-23T00:57:09.237Z,100.00
2023-11-23T01:02:14.381Z,100.00
2023-11-23T01:07:18.573Z,100.00
2023-11-23T01:12:22.361Z,100.00
2023-11-23T01:17:29.284Z,99.64
2023-11-23T01:22:32.609Z,98.80
2023-11-23T01:27:56.326Z,98.36
2023-11-23T01:33:03.006Z,98.78
2023-11-23T01:38:06.404Z,96.72
2023-11-23T01:43:11.232Z,94.52
2023-11-23T01:48:17.344Z,93.96
2023-11-23T01:53:41.812Z,93.66
2023-11-23T01:59:07.108Z,92.96
2023-11-23T02:04:31.925Z,91.82
2023-11-23T02:09:35.410Z,91.77
2023-11-23T02:14:39.485Z,91.46
2023-11-23T02:19:44.848Z,90.03
2023-11-23T02:24:49.743Z,90.05
2023-11-23T02:30:14.513Z,89.25
2023-11-23T02:35:38.074Z,88.39
2023-11-23T02:40:43.063Z,88.56
2023-11-23T02:45:47.289Z,87.91
2023-11-23T02:50:50.682Z,88.05
2023-11-23T02:55:55.559Z,87.42
2023-11-23T03:00:58.935Z,87.65
2023-11-23T03:06:02.710Z,87.30
2023-11-23T03:11:07.712Z,87.32
2023-11-23T03:16:11.179Z,87.11
2023-11-23T03:21:14.905Z,87.25
2023-11-23T03:26:19.577Z,87.60
2023-11-23T03:31:22.730Z,87.54
2023-11-23T03:36:26.036Z,87.51
2023-11-23T03:41:30.724Z,87.53
2023-11-23T03:46:33.988Z,87.54
2023-11-23T03:51:37.819Z,87.49
2023-11-23T03:56:42.797Z,87.12
2023-11-23T04:01:47.180Z,87.16
2023-11-23T04:06:50.450Z,87.35
2023-11-23T04:11:55.462Z,87.15
2023-11-23T04:16:58.708Z,87.37
2023-11-23T04:22:01.909Z,87.42
2023-11-23T04:27:06.854Z,87.35
2023-11-23T04:32:12.259Z,87.15
2023-11-23T04:37:15.411Z,87.40
2023-11-23T04:42:20.194Z,87.57
2023-11-23T04:47:24.396Z,86.92
2023-11-23T04:52:27.723Z,87.87
2023-11-23T04:57:33.207Z,87.91
2023-11-23T05:02:36.624Z,88.38
2023-11-23T05:07:42.706Z,89.35
2023-11-23T05:12:47.500Z,89.22
2023-11-23T05:17:50.867Z,90.09
2023-11-23T05:22:54.072Z,90.24
2023-11-23T05:27:59.024Z,91.01
2023-11-23T05:33:03.045Z,92.17
2023-11-23T05:38:06.281Z,92.18
2023-11-23T05:43:10.974Z,93.29
2023-11-23T05:48:14.412Z,92.94
2023-11-23T05:53:17.761Z,95.55
2023-11-23T05:58:22.473Z,96.59
2023-11-23T06:03:26.485Z,96.36
2023-11-23T06:08:30.057Z,95.09
2023-11-23T06:13:37.865Z,95.06
2023-11-23T06:18:44.479Z,96.42
2023-11-23T06:23:50.342Z,97.04
2023-11-23T06:28:55.100Z,97.92
2023-11-23T06:33:58.366Z,98.80
2023-11-23T06:39:02.180Z,99.07
2023-11-23T06:44:07.978Z,100.00
2023-11-23T06:49:12.016Z,100.00
2023-11-23T06:54:15.398Z,100.00
2023-11-23T06:59:20.773Z,100.00
2023-11-23T07:04:27.369Z,100.00
2023-11-23T07:09:30.631Z,100.00
2023-11-23T07:14:35.429Z,100.00
2023-11-23T07:19:39.069Z,100.00
2023-11-23T07:24:42.797Z,100.00
2023-11-23T07:29:47.475Z,100.00
2023-11-23T07:34:50.760Z,100.00
2023-11-23T07:39:54.177Z,100.00
2023-11-23T07:44:59.292Z,100.00
2023-11-23T07:50:02.748Z,100.00
2023-11-23T07:55:07.182Z,100.00
2023-11-23T08:00:14.560Z,100.00
2023-11-23T08:05:19.041Z,100.00
2023-11-23T08:10:22.337Z,100.00
2023-11-23T08:15:27.368Z,100.00
2023-11-23T08:20:30.545Z,100.00
2023-11-23T08:25:33.767Z,100.00
2023-11-23T08:30:40.160Z,100.00
2023-11-23T08:35:43.932Z,100.00
2023-11-23T08:40:47.963Z,100.00
2023-11-23T08:45:52.574Z,100.00
2023-11-23T08:50:56.061Z,100.00
2023-11-23T08:55:59.411Z,100.00
2023-11-23T09:01:04.255Z,100.00
2023-11-23T09:06:09.517Z,100.00
2023-11-23T09:11:12.798Z,100.00
2023-11-23T09:16:17.587Z,100.00
2023-11-23T09:21:21.040Z,100.00
2023-11-23T09:26:24.966Z,100.00
2023-11-23T09:31:32.471Z,100.00
2023-11-23T09:36:35.936Z,100.00
2023-11-23T09:41:43.409Z,100.00
2023-11-23T09:46:48.979Z,100.00
2023-11-23T09:51:56.628Z,100.00
2023-11-23T09:57:02.150Z,100.00
2023-11-23T10:02:11.010Z,100.00
2023-11-23T10:07:17.256Z,100.00
2023-11-23T10:12:23.104Z,100.00
2023-11-23T10:17:31.366Z,100.00
2023-11-23T10:22:34.755Z,100.00
2023-11-23T10:27:38.988Z,100.00
2023-11-23T10:32:46.900Z,100.00
2023-11-23T10:37:56.006Z,100.00
2023-11-23T10:43:02.427Z,100.00
2023-11-23T10:48:18.530Z,100.00
2023-11-23T10:53:34.602Z,100.00
2023-11-23T10:58:39.715Z,100.00
2023-11-23T11:03:46.257Z,100.00
2023-11-23T11:08:50.804Z,100.00
2023-11-23T11:14:02.463Z,100.00
2023-11-23T11:19:09.125Z,100.00
2023-11-23T11:24:22.886Z,100.00
2023-11-23T11:29:26.928Z,100.00
2023-11-23T11:34:35.722Z,100.00
2023-11-23T11:39:41.129Z,100.00
2023-11-23T11:44:46.624Z,100.00
2023-11-23T11:49:53.424Z,100.00
2023-11-23T11:54:57.269Z,100.00
2023-11-23T12:00:02.180Z,100.00
2023-11-23T12:05:13.527Z,100.00
2023-11-23T12:10:16.905Z,100.00
2023-11-23T12:15:20.631Z,100.00
2023-11-23T12:20:25.807Z,100.00
2023-11-23T12:25:33.222Z,100.00
2023-11-23T12:30:36.811Z,100.00
2023-11-23T12:35:41.817Z,100.00
2023-11-23T12:40:45.810Z,100.00
2023-11-23T12:45:49.089Z,100.00
2023-11-23T12:50:53.830Z,100.00
2023-11-23T12:55:57.225Z,100.00
2023-11-23T13:01:00.830Z,100.00
2023-11-23T13:06:05.850Z,100.00
2023-11-23T13:11:09.185Z,100.00
2023-11-23T13:16:12.416Z,100.00
2023-11-23T13:21:21.016Z,100.00
2023-11-23T13:26:24.744Z,100.00
2023-11-23T13:31:28.661Z,100.00
2023-11-23T13:36:35.924Z,100.00
2023-11-23T13:41:39.389Z,100.00
2023-11-23T13:46:44.393Z,100.00
2023-11-23T13:51:49.203Z,100.00
2023-11-23T13:56:53.104Z,100.00
2023-11-23T14:01:56.555Z,100.00
2023-11-23T14:07:01.860Z,100.00
2023-11-23T14:12:05.640Z,100.00
2023-11-23T14:17:10.335Z,100.00
2023-11-23T14:22:17.910Z,100.00
2023-11-23T14:27:21.835Z,100.00
2023-11-23T14:32:25.494Z,100.00
2023-11-23T14:37:30.821Z,100.00
2023-11-23T14:42:41.442Z,100.00
2023-11-23T14:47:47.529Z,100.00
2023-11-23T14:52:53.851Z,100.00
2023-11-23T14:57:58.581Z,100.00
2023-11-23T15:03:03.727Z,100.00
2023-11-23T15:08:09.796Z,100.00
2023-11-23T15:13:23.362Z,100.00
2023-11-23T15:18:34.659Z,100.00
2023-11-23T15:23:39.378Z,100.00
2023-11-23T15:28:44.214Z,100.00
2023-11-23T15:33:48.771Z,100.00
2023-11-23T15:38:53.426Z,100.00
2023-11-23T15:43:56.655Z,100.00
2023-11-23T15:48:59.945Z,100.00
2023-11-23T15:54:05.468Z,100.00
2023-11-23T15:59:09.388Z,100.00
2023-11-23T16:04:13.406Z,100.00
2023-11-23T16:09:20.754Z,100.00
2023-11-23T16:14:25.260Z,100.00
2023-11-23T16:19:28.979Z,100.00
2023-11-23T16:24:33.994Z,100.00
2023-11-23T16:29:40.545Z,100.00
2023-11-23T16:34:44.297Z,100.00
2023-11-23T16:39:50.385Z,100.00
2023-11-23T16:44:54.030Z,100.00
2023-11-23T16:49:58.781Z,100.00
2023-11-23T16:55:04.201Z,100.00
2023-11-23T17:00:12.569Z,100.00
2023-11-23T17:05:16.707Z,100.00
2023-11-23T17:10:24.312Z,100.00
2023-11-23T17:15:27.516Z,100.00
2023-11-23T17:20:31.312Z,100.00
2023-11-23T17:25:40.297Z,100.00
2023-11-23T17:30:43.728Z,100.00
2023-11-23T17:35:47.444Z,100.00
2023-11-23T17:40:52.324Z,100.00
2023-11-23T17:45:56.304Z,100.00
2023-11-23T17:51:00.559Z,100.00
2023-11-23T17:56:07.044Z,100.00
2023-11-23T18:01:11.309Z,100.00
2023-11-23T18:06:15.955Z,100.00
2023-11-23T18:11:21.817Z,100.00
2023-11-23T18:16:25.266Z,100.00
2023-11-23T18:21:28.508Z,100.00
2023-11-23T18:26:33.316Z,100.00
2023-11-23T18:31:49.544Z,100.00
2023-11-23T18:36:57.295Z,100.00
2023-11-23T18:42:06.345Z,100.00
2023-11-23T18:47:15.458Z,100.00
2023-11-23T18:52:20.398Z,100.00
2023-11-23T18:57:25.201Z,100.00
2023-11-23T19:02:29.009Z,100.00
2023-11-23T19:07:32.621Z,100.00
2023-11-23T19:12:38.468Z,100.00
2023-11-23T19:17:45.335Z,100.00
2023-11-23T19:22:51.790Z,100.00
2023-11-23T19:27:57.054Z,100.00
2023-11-23T19:33:06.412Z,100.00
2023-11-23T19:38:10.165Z,100.00
2023-11-23T19:43:16.622Z,100.00
2023-11-23T19:48:21.054Z,100.00
2023-11-23T19:53:28.005Z,100.00
2023-11-23T19:58:33.244Z,100.00
2023-11-23T20:03:38.472Z,100.00
2023-11-23T20:08:44.547Z,100.00
2023-11-23T20:13:49.537Z,100.00
2023-11-23T20:18:52.806Z,100.00
2023-11-23T20:23:59.073Z,100.00
2023-11-23T20:29:03.919Z,100.00
2023-11-23T20:34:08.633Z,100.00
2023-11-23T20:39:16.141Z,100.00
2023-11-23T20:44:28.408Z,100.00
2023-11-23T20:49:32.657Z,100.00
2023-11-23T20:54:36.102Z,100.00
2023-11-23T20:59:41.383Z,100.00
2023-11-23T21:04:45.265Z,100.00
2023-11-23T21:09:51.044Z,100.00
2023-11-23T21:14:55.871Z,100.00
2023-11-23T21:19:59.149Z,100.00
2023-11-23T21:25:02.321Z,100.00
2023-11-23T21:30:09.481Z,100.00
2023-11-23T21:35:13.282Z,100.00
2023-11-23T21:40:17.109Z,100.00
2023-11-23T21:45:22.336Z,100.00
2023-11-23T21:50:25.801Z,100.00
2023-11-23T21:55:30.913Z,100.00
2023-11-23T22:00:35.734Z,100.00
2023-11-23T22:05:38.877Z,100.00
2023-11-23T22:10:43.222Z,100.00
2023-11-23T22:15:48.128Z,100.00
2023-11-23T22:20:51.671Z,100.00
2023-11-23T22:25:56.006Z,100.00
2023-11-23T22:31:03.729Z,100.00
2023-11-23T22:36:08.067Z,100.00
2023-11-23T22:41:12.209Z,100.00
2023-11-23T22:46:19.202Z,100.00
2023-11-23T22:51:22.533Z,100.00
2023-11-23T22:56:25.930Z,100.00
2023-11-23T23:01:30.592Z,100.00
2023-11-23T23:06:34.323Z,100.00
2023-11-23T23:11:37.511Z,100.00
2023-11-23T23:16:42.172Z,100.00
2023-11-23T23:21:45.931Z,100.00
2023-11-23T23:26:49.507Z,100.00
2023-11-23T23:31:55.282Z,100.00
2023-11-23T23:36:58.829Z,100.00
2023-11-23T23:42:02.931Z,100.00
2023-11-23T23:47:08.883Z,100.00
2023-11-23T23:52:12.296Z,100.00
2023-11-23T23:57:15.475Z,100.00
